createdAt,value
2022-10-27T00:00:11.702Z,5.21
2022-10-27T00:10:43.117Z,5.14
2022-10-27T00:20:58.305Z,5.06
2022-10-27T00:31:04.576Z,5.02
2022-10-27T00:41:15.385Z,4.98
2022-10-27T00:51:19.828Z,5.04
2022-10-27T01:01:23.591Z,5.10
2022-10-27T01:11:27.301Z,5.12
2022-10-27T01:21:56.714Z,5.09
2022-10-27T01:32:25.390Z,5.18
2022-10-27T01:42:46.446Z,5.16
2022-10-27T01:52:50.640Z,5.28
2022-10-27T02:03:25.198Z,5.14
2022-10-27T02:13:30.973Z,4.90
2022-10-27T02:23:35.804Z,4.70
2022-10-27T02:33:39.781Z,4.60
2022-10-27T02:43:43.568Z,4.54
2022-10-27T02:53:47.212Z,4.53
2022-10-27T03:03:50.733Z,4.48
2022-10-27T03:13:54.237Z,4.57
2022-10-27T03:23:57.891Z,4.65
2022-10-27T03:34:01.560Z,4.63
2022-10-27T03:44:05.847Z,4.62
2022-10-27T03:54:09.413Z,4.71
2022-10-27T04:04:13.077Z,4.79
2022-10-27T04:14:16.743Z,5.01
2022-10-27T04:24:20.707Z,5.08
2022-10-27T04:34:24.507Z,5.11
2022-10-27T04:44:28.148Z,4.97
2022-10-27T04:54:31.819Z,4.91
2022-10-27T05:04:35.591Z,4.67
2022-10-27T05:14:39.449Z,4.55
2022-10-27T05:24:43.017Z,4.62
2022-10-27T05:34:46.800Z,4.62
2022-10-27T05:44:50.482Z,4.65
2022-10-27T05:54:54.227Z,4.71
2022-10-27T06:04:57.887Z,4.80
2022-10-27T06:15:01.659Z,5.17
2022-10-27T06:25:06.145Z,5.49
2022-10-27T06:35:11.495Z,5.92
2022-10-27T06:45:15.358Z,6.30
2022-10-27T06:55:20.005Z,6.72
2022-10-27T07:05:23.864Z,7.31
2022-10-27T07:15:33.687Z,7.76
2022-10-27T07:25:38.218Z,8.38
2022-10-27T07:35:42.383Z,8.87
2022-10-27T07:45:46.197Z,9.13
2022-10-27T07:55:49.778Z,9.31
2022-10-27T08:05:54.036Z,9.50
2022-10-27T08:16:01.203Z,9.60
2022-10-27T08:26:05.568Z,9.66
2022-10-27T08:36:11.174Z,9.81
2022-10-27T08:46:36.744Z,10.11
2022-10-27T08:56:42.141Z,10.55
2022-10-27T09:07:21.432Z,11.08
2022-10-27T09:17:29.028Z,11.73
2022-10-27T09:27:35.220Z,12.27
2022-10-27T09:37:41.420Z,12.73
2022-10-27T09:47:50.088Z,13.17
2022-10-27T09:57:55.568Z,13.44
2022-10-27T10:08:24.687Z,13.84
2022-10-27T10:18:30.734Z,14.31
2022-10-27T10:28:43.702Z,14.59
2022-10-27T10:38:53.659Z,14.85
2022-10-27T10:48:59.472Z,15.19
2022-10-27T10:59:17.274Z,15.57
2022-10-27T11:09:21.756Z,15.88
2022-10-27T11:19:29.912Z,16.18
2022-10-27T11:30:21.178Z,16.49
2022-10-27T11:40:34.302Z,16.82
2022-10-27T11:50:46.991Z,17.11
2022-10-27T12:01:10.996Z,17.30
2022-10-27T12:11:40.451Z,17.35
2022-10-27T12:21:49.521Z,17.44
2022-10-27T12:32:04.065Z,17.52
2022-10-27T12:42:38.273Z,17.63
2022-10-27T12:52:51.661Z,17.64
2022-10-27T13:03:11.437Z,17.70
2022-10-27T13:13:36.759Z,17.88
2022-10-27T13:23:47.649Z,17.82
2022-10-27T13:34:20.258Z,17.71
2022-10-27T13:44:29.495Z,17.55
2022-10-27T13:54:54.091Z,17.27
2022-10-27T14:05:05.183Z,17.01
2022-10-27T14:15:12.011Z,16.62
2022-10-27T14:25:27.825Z,16.24
2022-10-27T14:35:32.033Z,15.84
2022-10-27T14:45:38.076Z,15.44
2022-10-27T14:55:41.922Z,14.97
2022-10-27T15:05:48.967Z,14.47
2022-10-27T15:15:58.856Z,14.03
2022-10-27T15:26:03.474Z,13.45
2022-10-27T15:36:13.437Z,12.85
2022-10-27T15:46:17.446Z,12.20
2022-10-27T15:56:33.704Z,11.70
2022-10-27T16:06:37.776Z,11.24
2022-10-27T16:16:42.058Z,10.90
2022-10-27T16:26:48.186Z,10.48
2022-10-27T16:36:52.140Z,10.06
2022-10-27T16:46:57.927Z,9.65
2022-10-27T16:57:05.868Z,9.40
2022-10-27T17:07:10.727Z,9.20
2022-10-27T17:17:15.528Z,8.86
2022-10-27T17:27:20.202Z,8.53
2022-10-27T17:37:27.751Z,8.20
2022-10-27T17:47:34.487Z,7.90
2022-10-27T17:57:39.939Z,7.77
2022-10-27T18:07:46.929Z,7.58
2022-10-27T18:17:52.160Z,7.39
2022-10-27T18:27:56.726Z,7.11
2022-10-27T18:38:01.723Z,6.92
2022-10-27T18:48:07.708Z,6.73
2022-10-27T18:58:12.926Z,6.51
2022-10-27T19:08:19.458Z,6.36
2022-10-27T19:18:24.566Z,6.32
2022-10-27T19:28:32.489Z,6.19
2022-10-27T19:38:38.174Z,6.04
2022-10-27T19:48:43.745Z,6.00
2022-10-27T19:58:55.003Z,5.88
2022-10-27T20:09:01.106Z,5.81
2022-10-27T20:19:08.530Z,5.69
2022-10-27T20:29:14.847Z,5.59
2022-10-27T20:39:22.648Z,5.44
2022-10-27T20:49:26.726Z,5.50
2022-10-27T20:59:31.143Z,5.64
2022-10-27T21:09:34.775Z,5.69
2022-10-27T21:19:38.955Z,5.75
2022-10-27T21:29:43.024Z,5.90
2022-10-27T21:39:47.101Z,6.00
2022-10-27T21:49:51.780Z,6.02
2022-10-27T21:59:55.756Z,6.08
2022-10-27T22:09:59.327Z,6.15
2022-10-27T22:20:03.210Z,6.14
2022-10-27T22:30:08.205Z,6.18
2022-10-27T22:40:12.467Z,6.12
2022-10-27T22:50:16.023Z,6.13
2022-10-27T23:00:20.006Z,6.15
2022-10-27T23:10:23.565Z,6.15
2022-10-27T23:20:27.150Z,6.13
2022-10-27T23:30:30.697Z,6.10
2022-10-27T23:40:34.872Z,6.03
2022-10-27T23:50:39.359Z,6.03
